sensor_id;sensor_type;location;lat;lon;timestamp;P1;durP1;ratioP1;P2;durP2;ratioP2
71572;SDS011;59408;51.032;9.410;2023-07-20T00:01:41;5.93;;;3.08;;
71572;SDS011;59408;51.032;9.410;2023-07-20T00:04:09;7.88;;;3.10;;
71572;SDS011;59408;51.032;9.410;2023-07-20T00:06:35;5.20;;;2.80;;
71572;SDS011;59408;51.032;9.410;2023-07-20T00:09:02;7.73;;;2.93;;
71572;SDS011;59408;51.032;9.410;2023-07-20T00:11:29;6.18;;;2.60;;
71572;SDS011;59408;51.032;9.410;2023-07-20T00:13:55;7.45;;;2.88;;
71572;SDS011;59408;51.032;9.410;2023-07-20T00:16:22;6.07;;;3.00;;
71572;SDS011;59408;51.032;9.410;2023-07-20T00:18:49;5.80;;;2.88;;
71572;SDS011;59408;51.032;9.410;2023-07-20T00:21:17;5.67;;;2.73;;
71572;SDS011;59408;51.032;9.410;2023-07-20T00:23:43;5.68;;;2.75;;
71572;SDS011;59408;51.032;9.410;2023-07-20T00:26:10;7.30;;;2.90;;
71572;SDS011;59408;51.032;9.410;2023-07-20T00:28:37;7.95;;;3.22;;
71572;SDS011;59408;51.032;9.410;2023-07-20T00:31:03;5.78;;;2.55;;
71572;SDS011;59408;51.032;9.410;2023-07-20T00:33:30;6.30;;;2.77;;
71572;SDS011;59408;51.032;9.410;2023-07-20T00:35:57;7.63;;;3.08;;
71572;SDS011;59408;51.032;9.410;2023-07-20T00:38:25;6.75;;;3.10;;
71572;SDS011;59408;51.032;9.410;2023-07-20T00:40:51;6.30;;;3.10;;
71572;SDS011;59408;51.032;9.410;2023-07-20T00:43:18;5.63;;;3.15;;
71572;SDS011;59408;51.032;9.410;2023-07-20T00:45:44;7.07;;;3.27;;
71572;SDS011;59408;51.032;9.410;2023-07-20T00:48:11;5.55;;;3.05;;
71572;SDS011;59408;51.032;9.410;2023-07-20T00:50:39;6.32;;;2.60;;
71572;SDS011;59408;51.032;9.410;2023-07-20T00:53:06;5.18;;;2.75;;
71572;SDS011;59408;51.032;9.410;2023-07-20T00:55:35;6.28;;;3.67;;
71572;SDS011;59408;51.032;9.410;2023-07-20T00:58:01;6.23;;;2.90;;
71572;SDS011;59408;51.032;9.410;2023-07-20T01:00:28;7.00;;;2.88;;
71572;SDS011;59408;51.032;9.410;2023-07-20T01:02:55;6.80;;;3.05;;
71572;SDS011;59408;51.032;9.410;2023-07-20T01:05:23;6.63;;;3.13;;
71572;SDS011;59408;51.032;9.410;2023-07-20T01:07:58;9.05;;;3.50;;
71572;SDS011;59408;51.032;9.410;2023-07-20T01:10:29;7.53;;;3.20;;
71572;SDS011;59408;51.032;9.410;2023-07-20T01:13:01;6.95;;;3.35;;
71572;SDS011;59408;51.032;9.410;2023-07-20T01:15:29;5.85;;;3.10;;
71572;SDS011;59408;51.032;9.410;2023-07-20T01:17:56;7.22;;;3.38;;
71572;SDS011;59408;51.032;9.410;2023-07-20T01:20:22;6.70;;;3.65;;
71572;SDS011;59408;51.032;9.410;2023-07-20T01:23:01;6.90;;;3.63;;
71572;SDS011;59408;51.032;9.410;2023-07-20T01:25:59;7.47;;;3.70;;
71572;SDS011;59408;51.032;9.410;2023-07-20T01:28:40;6.45;;;3.55;;
71572;SDS011;59408;51.032;9.410;2023-07-20T01:31:22;6.28;;;3.50;;
71572;SDS011;59408;51.032;9.410;2023-07-20T01:33:52;8.57;;;4.15;;
71572;SDS011;59408;51.032;9.410;2023-07-20T01:36:21;8.93;;;4.27;;
71572;SDS011;59408;51.032;9.410;2023-07-20T01:38:50;7.35;;;3.92;;
71572;SDS011;59408;51.032;9.410;2023-07-20T01:41:18;8.93;;;4.20;;
71572;SDS011;59408;51.032;9.410;2023-07-20T01:43:45;7.70;;;4.03;;
71572;SDS011;59408;51.032;9.410;2023-07-20T01:46:12;7.40;;;4.20;;
71572;SDS011;59408;51.032;9.410;2023-07-20T01:48:40;7.70;;;3.73;;
71572;SDS011;59408;51.032;9.410;2023-07-20T01:51:07;7.57;;;3.72;;
71572;SDS011;59408;51.032;9.410;2023-07-20T01:53:33;7.65;;;4.00;;
71572;SDS011;59408;51.032;9.410;2023-07-20T01:56:00;7.70;;;4.20;;
71572;SDS011;59408;51.032;9.410;2023-07-20T01:58:27;7.45;;;4.38;;
71572;SDS011;59408;51.032;9.410;2023-07-20T02:00:53;7.13;;;4.13;;
71572;SDS011;59408;51.032;9.410;2023-07-20T02:03:20;7.00;;;4.13;;
71572;SDS011;59408;51.032;9.410;2023-07-20T02:05:48;7.57;;;4.32;;
71572;SDS011;59408;51.032;9.410;2023-07-20T02:08:14;8.18;;;4.47;;
71572;SDS011;59408;51.032;9.410;2023-07-20T02:10:41;7.70;;;4.20;;
71572;SDS011;59408;51.032;9.410;2023-07-20T02:13:08;8.30;;;4.43;;
71572;SDS011;59408;51.032;9.410;2023-07-20T02:15:34;7.63;;;4.30;;
71572;SDS011;59408;51.032;9.410;2023-07-20T02:18:01;7.30;;;4.53;;
71572;SDS011;59408;51.032;9.410;2023-07-20T02:20:27;9.05;;;4.63;;
71572;SDS011;59408;51.032;9.410;2023-07-20T02:22:55;10.85;;;4.68;;
71572;SDS011;59408;51.032;9.410;2023-07-20T02:25:22;8.73;;;4.20;;
71572;SDS011;59408;51.032;9.410;2023-07-20T02:27:48;8.77;;;4.32;;
71572;SDS011;59408;51.032;9.410;2023-07-20T02:30:15;8.73;;;4.85;;
71572;SDS011;59408;51.032;9.410;2023-07-20T02:32:41;8.98;;;5.00;;
71572;SDS011;59408;51.032;9.410;2023-07-20T02:35:08;8.02;;;5.20;;
71572;SDS011;59408;51.032;9.410;2023-07-20T02:37:35;7.07;;;4.10;;
71572;SDS011;59408;51.032;9.410;2023-07-20T02:40:03;7.85;;;4.40;;
71572;SDS011;59408;51.032;9.410;2023-07-20T02:42:30;9.50;;;4.90;;
71572;SDS011;59408;51.032;9.410;2023-07-20T02:44:57;9.88;;;4.97;;
71572;SDS011;59408;51.032;9.410;2023-07-20T02:47:23;8.50;;;5.13;;
71572;SDS011;59408;51.032;9.410;2023-07-20T02:49:50;8.40;;;5.00;;
71572;SDS011;59408;51.032;9.410;2023-07-20T02:52:17;8.77;;;5.22;;
71572;SDS011;59408;51.032;9.410;2023-07-20T02:54:46;8.93;;;5.30;;
71572;SDS011;59408;51.032;9.410;2023-07-20T02:57:14;8.27;;;4.97;;
71572;SDS011;59408;51.032;9.410;2023-07-20T02:59:41;9.55;;;5.00;;
71572;SDS011;59408;51.032;9.410;2023-07-20T03:02:09;10.73;;;5.20;;
71572;SDS011;59408;51.032;9.410;2023-07-20T03:04:35;11.23;;;5.30;;
71572;SDS011;59408;51.032;9.410;2023-07-20T03:07:02;9.02;;;5.75;;
71572;SDS011;59408;51.032;9.410;2023-07-20T03:09:29;10.07;;;5.30;;
71572;SDS011;59408;51.032;9.410;2023-07-20T03:11:55;8.13;;;5.10;;
71572;SDS011;59408;51.032;9.410;2023-07-20T03:14:23;8.37;;;5.27;;
71572;SDS011;59408;51.032;9.410;2023-07-20T03:16:50;8.68;;;5.45;;
71572;SDS011;59408;51.032;9.410;2023-07-20T03:19:16;9.07;;;5.68;;
71572;SDS011;59408;51.032;9.410;2023-07-20T03:21:43;9.70;;;5.55;;
71572;SDS011;59408;51.032;9.410;2023-07-20T03:24:09;8.30;;;5.20;;
71572;SDS011;59408;51.032;9.410;2023-07-20T03:26:36;8.87;;;5.33;;
71572;SDS011;59408;51.032;9.410;2023-07-20T03:29:03;9.90;;;6.05;;
71572;SDS011;59408;51.032;9.410;2023-07-20T03:31:32;10.73;;;5.95;;
71572;SDS011;59408;51.032;9.410;2023-07-20T03:33:58;9.57;;;5.57;;
71572;SDS011;59408;51.032;9.410;2023-07-20T03:36:25;10.55;;;6.07;;
71572;SDS011;59408;51.032;9.410;2023-07-20T03:38:52;10.43;;;5.40;;
71572;SDS011;59408;51.032;9.410;2023-07-20T03:41:18;10.43;;;5.95;;
71572;SDS011;59408;51.032;9.410;2023-07-20T03:43:45;9.18;;;5.60;;
71572;SDS011;59408;51.032;9.410;2023-07-20T03:46:11;10.02;;;6.25;;
71572;SDS011;59408;51.032;9.410;2023-07-20T03:48:40;10.75;;;6.45;;
71572;SDS011;59408;51.032;9.410;2023-07-20T03:51:06;10.30;;;5.73;;
71572;SDS011;59408;51.032;9.410;2023-07-20T03:53:33;9.10;;;5.75;;
71572;SDS011;59408;51.032;9.410;2023-07-20T03:55:59;11.05;;;6.20;;
71572;SDS011;59408;51.032;9.410;2023-07-20T03:58:26;10.02;;;6.10;;
71572;SDS011;59408;51.032;9.410;2023-07-20T04:00:53;9.77;;;6.45;;
71572;SDS011;59408;51.032;9.410;2023-07-20T04:03:19;9.97;;;6.10;;
71572;SDS011;59408;51.032;9.410;2023-07-20T04:05:48;13.18;;;5.93;;
71572;SDS011;59408;51.032;9.410;2023-07-20T04:08:14;10.55;;;6.65;;
71572;SDS011;59408;51.032;9.410;2023-07-20T04:10:42;9.90;;;5.80;;
71572;SDS011;59408;51.032;9.410;2023-07-20T04:13:09;10.30;;;6.45;;
71572;SDS011;59408;51.032;9.410;2023-07-20T04:15:36;11.73;;;6.47;;
71572;SDS011;59408;51.032;9.410;2023-07-20T04:18:03;10.75;;;6.13;;
71572;SDS011;59408;51.032;9.410;2023-07-20T04:20:29;11.50;;;6.78;;
71572;SDS011;59408;51.032;9.410;2023-07-20T04:22:57;10.65;;;6.18;;
71572;SDS011;59408;51.032;9.410;2023-07-20T04:25:24;12.32;;;6.10;;
71572;SDS011;59408;51.032;9.410;2023-07-20T04:27:51;10.93;;;5.93;;
71572;SDS011;59408;51.032;9.410;2023-07-20T04:30:17;10.88;;;5.85;;
71572;SDS011;59408;51.032;9.410;2023-07-20T04:32:44;10.40;;;6.10;;
71572;SDS011;59408;51.032;9.410;2023-07-20T04:35:16;11.80;;;6.40;;
71572;SDS011;59408;51.032;9.410;2023-07-20T04:37:44;13.00;;;6.30;;
71572;SDS011;59408;51.032;9.410;2023-07-20T04:40:12;9.53;;;6.03;;
71572;SDS011;59408;51.032;9.410;2023-07-20T04:42:39;10.07;;;6.43;;
71572;SDS011;59408;51.032;9.410;2023-07-20T04:45:06;12.38;;;5.93;;
71572;SDS011;59408;51.032;9.410;2023-07-20T04:47:34;11.10;;;6.75;;
71572;SDS011;59408;51.032;9.410;2023-07-20T04:50:00;11.27;;;6.55;;
71572;SDS011;59408;51.032;9.410;2023-07-20T04:52:27;10.57;;;6.20;;
71572;SDS011;59408;51.032;9.410;2023-07-20T04:55:07;10.85;;;6.03;;
71572;SDS011;59408;51.032;9.410;2023-07-20T04:57:35;9.90;;;6.78;;
71572;SDS011;59408;51.032;9.410;2023-07-20T05:00:02;10.90;;;6.47;;
71572;SDS011;59408;51.032;9.410;2023-07-20T05:02:29;11.82;;;6.38;;
71572;SDS011;59408;51.032;9.410;2023-07-20T05:04:56;11.97;;;6.33;;
71572;SDS011;59408;51.032;9.410;2023-07-20T05:07:23;12.75;;;5.85;;
71572;SDS011;59408;51.032;9.410;2023-07-20T05:09:49;10.05;;;5.75;;
71572;SDS011;59408;51.032;9.410;2023-07-20T05:12:16;9.52;;;6.05;;
71572;SDS011;59408;51.032;9.410;2023-07-20T05:14:47;11.30;;;6.03;;
71572;SDS011;59408;51.032;9.410;2023-07-20T05:17:13;11.47;;;5.00;;
71572;SDS011;59408;51.032;9.410;2023-07-20T05:19:40;10.13;;;5.85;;
71572;SDS011;59408;51.032;9.410;2023-07-20T05:22:10;11.02;;;5.78;;
71572;SDS011;59408;51.032;9.410;2023-07-20T05:24:36;10.38;;;5.43;;
71572;SDS011;59408;51.032;9.410;2023-07-20T05:27:03;14.82;;;6.07;;
71572;SDS011;59408;51.032;9.410;2023-07-20T05:29:30;10.33;;;5.00;;
71572;SDS011;59408;51.032;9.410;2023-07-20T05:31:58;9.13;;;4.78;;
71572;SDS011;59408;51.032;9.410;2023-07-20T05:34:25;10.50;;;5.40;;
71572;SDS011;59408;51.032;9.410;2023-07-20T05:36:51;9.05;;;4.90;;
71572;SDS011;59408;51.032;9.410;2023-07-20T05:39:18;10.23;;;5.35;;
71572;SDS011;59408;51.032;9.410;2023-07-20T05:41:44;9.07;;;4.77;;
71572;SDS011;59408;51.032;9.410;2023-07-20T05:44:11;10.55;;;4.82;;
71572;SDS011;59408;51.032;9.410;2023-07-20T05:46:37;9.20;;;5.20;;
71572;SDS011;59408;51.032;9.410;2023-07-20T05:49:23;10.57;;;5.25;;
71572;SDS011;59408;51.032;9.410;2023-07-20T05:51:50;9.85;;;5.70;;
71572;SDS011;59408;51.032;9.410;2023-07-20T05:54:16;9.80;;;5.00;;
71572;SDS011;59408;51.032;9.410;2023-07-20T05:56:43;10.02;;;5.25;;
71572;SDS011;59408;51.032;9.410;2023-07-20T05:59:09;9.57;;;5.80;;
71572;SDS011;59408;51.032;9.410;2023-07-20T06:01:36;9.52;;;5.45;;
71572;SDS011;59408;51.032;9.410;2023-07-20T06:04:03;10.15;;;5.40;;
71572;SDS011;59408;51.032;9.410;2023-07-20T06:06:31;10.50;;;5.43;;
71572;SDS011;59408;51.032;9.410;2023-07-20T06:08:59;12.93;;;5.13;;
71572;SDS011;59408;51.032;9.410;2023-07-20T06:11:26;10.35;;;5.25;;
71572;SDS011;59408;51.032;9.410;2023-07-20T06:13:53;11.75;;;4.85;;
71572;SDS011;59408;51.032;9.410;2023-07-20T06:16:19;12.80;;;5.43;;
71572;SDS011;59408;51.032;9.410;2023-07-20T06:18:46;9.80;;;4.50;;
71572;SDS011;59408;51.032;9.410;2023-07-20T06:21:13;10.00;;;4.50;;
71572;SDS011;59408;51.032;9.410;2023-07-20T06:23:41;9.93;;;4.65;;
71572;SDS011;59408;51.032;9.410;2023-07-20T06:26:08;9.93;;;4.85;;
71572;SDS011;59408;51.032;9.410;2023-07-20T06:28:34;10.00;;;4.93;;
71572;SDS011;59408;51.032;9.410;2023-07-20T06:31:01;9.27;;;4.40;;
71572;SDS011;59408;51.032;9.410;2023-07-20T06:33:29;9.10;;;4.60;;
71572;SDS011;59408;51.032;9.410;2023-07-20T06:35:56;9.20;;;5.07;;
71572;SDS011;59408;51.032;9.410;2023-07-20T06:38:23;10.30;;;4.70;;
71572;SDS011;59408;51.032;9.410;2023-07-20T06:40:53;8.93;;;4.78;;
71572;SDS011;59408;51.032;9.410;2023-07-20T06:43:20;8.90;;;4.70;;
71572;SDS011;59408;51.032;9.410;2023-07-20T06:45:53;10.40;;;4.70;;
71572;SDS011;59408;51.032;9.410;2023-07-20T06:48:20;9.60;;;5.68;;
71572;SDS011;59408;51.032;9.410;2023-07-20T06:50:47;10.85;;;5.70;;
71572;SDS011;59408;51.032;9.410;2023-07-20T06:53:14;10.48;;;5.55;;
71572;SDS011;59408;51.032;9.410;2023-07-20T06:55:41;10.87;;;6.00;;
71572;SDS011;59408;51.032;9.410;2023-07-20T06:58:10;9.57;;;5.75;;
71572;SDS011;59408;51.032;9.410;2023-07-20T07:00:37;8.93;;;5.20;;
71572;SDS011;59408;51.032;9.410;2023-07-20T07:03:04;8.38;;;5.03;;
71572;SDS011;59408;51.032;9.410;2023-07-20T07:05:30;11.00;;;5.10;;
71572;SDS011;59408;51.032;9.410;2023-07-20T07:08:00;9.20;;;4.87;;
71572;SDS011;59408;51.032;9.410;2023-07-20T07:10:26;8.55;;;4.80;;
71572;SDS011;59408;51.032;9.410;2023-07-20T07:12:53;8.73;;;4.82;;
71572;SDS011;59408;51.032;9.410;2023-07-20T07:15:21;9.40;;;5.32;;
71572;SDS011;59408;51.032;9.410;2023-07-20T07:17:47;9.13;;;5.32;;
71572;SDS011;59408;51.032;9.410;2023-07-20T07:20:14;8.37;;;4.57;;
71572;SDS011;59408;51.032;9.410;2023-07-20T07:22:43;9.50;;;4.50;;
71572;SDS011;59408;51.032;9.410;2023-07-20T07:25:12;8.52;;;4.78;;
71572;SDS011;59408;51.032;9.410;2023-07-20T07:27:38;9.80;;;4.63;;
71572;SDS011;59408;51.032;9.410;2023-07-20T07:30:05;8.23;;;4.90;;
71572;SDS011;59408;51.032;9.410;2023-07-20T07:32:34;10.67;;;4.67;;
71572;SDS011;59408;51.032;9.410;2023-07-20T07:35:01;10.15;;;4.90;;
71572;SDS011;59408;51.032;9.410;2023-07-20T07:37:27;10.00;;;5.53;;
71572;SDS011;59408;51.032;9.410;2023-07-20T07:39:56;8.52;;;4.80;;
71572;SDS011;59408;51.032;9.410;2023-07-20T07:42:23;8.55;;;4.70;;
71572;SDS011;59408;51.032;9.410;2023-07-20T07:44:50;8.63;;;4.80;;
71572;SDS011;59408;51.032;9.410;2023-07-20T07:47:17;7.88;;;4.30;;
71572;SDS011;59408;51.032;9.410;2023-07-20T07:49:45;7.68;;;4.32;;
71572;SDS011;59408;51.032;9.410;2023-07-20T07:52:12;8.00;;;4.53;;
71572;SDS011;59408;51.032;9.410;2023-07-20T07:54:39;7.78;;;4.30;;
71572;SDS011;59408;51.032;9.410;2023-07-20T07:57:06;7.73;;;4.37;;
71572;SDS011;59408;51.032;9.410;2023-07-20T07:59:32;7.45;;;4.40;;
71572;SDS011;59408;51.032;9.410;2023-07-20T08:01:59;7.68;;;4.38;;
71572;SDS011;59408;51.032;9.410;2023-07-20T08:04:25;8.88;;;4.30;;
71572;SDS011;59408;51.032;9.410;2023-07-20T08:06:53;7.28;;;4.15;;
71572;SDS011;59408;51.032;9.410;2023-07-20T08:09:20;8.67;;;4.90;;
71572;SDS011;59408;51.032;9.410;2023-07-20T08:11:46;8.18;;;4.45;;
71572;SDS011;59408;51.032;9.410;2023-07-20T08:14:13;7.65;;;4.40;;
71572;SDS011;59408;51.032;9.410;2023-07-20T08:16:39;8.05;;;3.95;;
71572;SDS011;59408;51.032;9.410;2023-07-20T08:19:06;9.15;;;3.90;;
71572;SDS011;59408;51.032;9.410;2023-07-20T08:21:33;8.53;;;3.90;;
71572;SDS011;59408;51.032;9.410;2023-07-20T08:24:01;7.72;;;4.00;;
71572;SDS011;59408;51.032;9.410;2023-07-20T08:26:27;7.60;;;4.05;;
71572;SDS011;59408;51.032;9.410;2023-07-20T08:28:54;6.75;;;4.20;;
71572;SDS011;59408;51.032;9.410;2023-07-20T08:31:21;10.13;;;4.15;;
71572;SDS011;59408;51.032;9.410;2023-07-20T08:33:47;8.57;;;3.87;;
71572;SDS011;59408;51.032;9.410;2023-07-20T08:36:14;8.00;;;4.25;;
71572;SDS011;59408;51.032;9.410;2023-07-20T08:38:41;7.38;;;3.28;;
71572;SDS011;59408;51.032;9.410;2023-07-20T08:41:10;7.60;;;2.70;;
71572;SDS011;59408;51.032;9.410;2023-07-20T08:43:37;5.55;;;2.50;;
71572;SDS011;59408;51.032;9.410;2023-07-20T08:46:06;5.90;;;2.07;;
71572;SDS011;59408;51.032;9.410;2023-07-20T08:48:34;4.75;;;1.98;;
71572;SDS011;59408;51.032;9.410;2023-07-20T08:51:00;4.13;;;1.55;;
71572;SDS011;59408;51.032;9.410;2023-07-20T08:53:30;5.45;;;2.10;;
71572;SDS011;59408;51.032;9.410;2023-07-20T08:55:58;4.80;;;1.88;;
71572;SDS011;59408;51.032;9.410;2023-07-20T08:58:28;5.73;;;1.90;;
71572;SDS011;59408;51.032;9.410;2023-07-20T09:00:56;5.13;;;1.92;;
71572;SDS011;59408;51.032;9.410;2023-07-20T09:03:24;4.45;;;1.67;;
71572;SDS011;59408;51.032;9.410;2023-07-20T09:05:51;5.53;;;1.80;;
71572;SDS011;59408;51.032;9.410;2023-07-20T09:08:17;7.32;;;2.75;;
71572;SDS011;59408;51.032;9.410;2023-07-20T09:10:44;5.60;;;2.00;;
71572;SDS011;59408;51.032;9.410;2023-07-20T09:13:13;6.82;;;2.50;;
71572;SDS011;59408;51.032;9.410;2023-07-20T09:15:46;7.07;;;2.80;;
71572;SDS011;59408;51.032;9.410;2023-07-20T09:18:22;6.35;;;2.13;;
71572;SDS011;59408;51.032;9.410;2023-07-20T09:20:50;6.40;;;2.33;;
71572;SDS011;59408;51.032;9.410;2023-07-20T09:23:16;5.93;;;2.30;;
71572;SDS011;59408;51.032;9.410;2023-07-20T09:25:45;6.10;;;2.20;;
71572;SDS011;59408;51.032;9.410;2023-07-20T09:28:13;5.25;;;2.35;;
71572;SDS011;59408;51.032;9.410;2023-07-20T09:30:40;7.07;;;2.50;;
71572;SDS011;59408;51.032;9.410;2023-07-20T09:33:08;5.25;;;2.20;;
71572;SDS011;59408;51.032;9.410;2023-07-20T09:35:47;5.53;;;1.90;;
71572;SDS011;59408;51.032;9.410;2023-07-20T09:38:21;5.55;;;1.92;;
71572;SDS011;59408;51.032;9.410;2023-07-20T09:40:50;4.65;;;1.92;;
71572;SDS011;59408;51.032;9.410;2023-07-20T09:43:20;4.88;;;2.00;;
71572;SDS011;59408;51.032;9.410;2023-07-20T09:45:49;4.75;;;2.10;;
71572;SDS011;59408;51.032;9.410;2023-07-20T09:48:23;4.47;;;1.93;;
71572;SDS011;59408;51.032;9.410;2023-07-20T09:50:53;4.80;;;1.83;;
71572;SDS011;59408;51.032;9.410;2023-07-20T09:53:20;5.50;;;2.08;;
71572;SDS011;59408;51.032;9.410;2023-07-20T09:55:47;5.75;;;2.25;;
71572;SDS011;59408;51.032;9.410;2023-07-20T09:58:14;4.85;;;2.10;;
71572;SDS011;59408;51.032;9.410;2023-07-20T10:00:42;4.90;;;1.90;;
71572;SDS011;59408;51.032;9.410;2023-07-20T10:03:14;5.30;;;2.10;;
71572;SDS011;59408;51.032;9.410;2023-07-20T10:05:46;5.30;;;2.10;;
71572;SDS011;59408;51.032;9.410;2023-07-20T10:08:17;5.25;;;2.30;;
71572;SDS011;59408;51.032;9.410;2023-07-20T10:10:52;5.35;;;2.45;;
71572;SDS011;59408;51.032;9.410;2023-07-20T10:13:21;5.47;;;2.20;;
71572;SDS011;59408;51.032;9.410;2023-07-20T10:15:53;6.45;;;2.90;;
71572;SDS011;59408;51.032;9.410;2023-07-20T10:18:22;5.78;;;2.90;;
71572;SDS011;59408;51.032;9.410;2023-07-20T10:20:55;5.45;;;2.42;;
71572;SDS011;59408;51.032;9.410;2023-07-20T10:23:26;6.13;;;3.10;;
71572;SDS011;59408;51.032;9.410;2023-07-20T10:25:55;5.30;;;2.70;;
71572;SDS011;59408;51.032;9.410;2023-07-20T10:28:21;6.18;;;3.25;;
71572;SDS011;59408;51.032;9.410;2023-07-20T10:30:48;6.00;;;2.85;;
71572;SDS011;59408;51.032;9.410;2023-07-20T10:33:16;6.93;;;3.10;;
71572;SDS011;59408;51.032;9.410;2023-07-20T10:35:50;6.70;;;3.15;;
71572;SDS011;59408;51.032;9.410;2023-07-20T10:38:19;5.60;;;2.47;;
71572;SDS011;59408;51.032;9.410;2023-07-20T10:40:53;5.43;;;2.33;;
71572;SDS011;59408;51.032;9.410;2023-07-20T10:43:21;6.85;;;3.25;;
71572;SDS011;59408;51.032;9.410;2023-07-20T10:45:49;5.82;;;2.83;;
71572;SDS011;59408;51.032;9.410;2023-07-20T10:48:17;5.20;;;2.70;;
71572;SDS011;59408;51.032;9.410;2023-07-20T10:50:46;14.17;;;6.23;;
71572;SDS011;59408;51.032;9.410;2023-07-20T10:53:33;6.88;;;2.58;;
71572;SDS011;59408;51.032;9.410;2023-07-20T10:56:05;5.90;;;2.90;;
71572;SDS011;59408;51.032;9.410;2023-07-20T10:58:33;5.72;;;2.55;;
71572;SDS011;59408;51.032;9.410;2023-07-20T11:01:00;5.15;;;2.53;;
71572;SDS011;59408;51.032;9.410;2023-07-20T11:03:29;5.07;;;2.40;;
71572;SDS011;59408;51.032;9.410;2023-07-20T11:09:04;6.03;;;2.28;;
71572;SDS011;59408;51.032;9.410;2023-07-20T11:11:35;5.68;;;2.15;;
71572;SDS011;59408;51.032;9.410;2023-07-20T11:14:03;4.80;;;2.38;;
71572;SDS011;59408;51.032;9.410;2023-07-20T11:16:38;5.47;;;2.57;;
71572;SDS011;59408;51.032;9.410;2023-07-20T11:19:13;6.43;;;2.22;;
71572;SDS011;59408;51.032;9.410;2023-07-20T11:22:01;5.38;;;2.35;;
71572;SDS011;59408;51.032;9.410;2023-07-20T11:24:32;4.85;;;2.00;;
71572;SDS011;59408;51.032;9.410;2023-07-20T11:27:00;4.90;;;2.28;;
71572;SDS011;59408;51.032;9.410;2023-07-20T11:29:26;4.47;;;2.20;;
71572;SDS011;59408;51.032;9.410;2023-07-20T11:31:58;4.82;;;2.28;;
71572;SDS011;59408;51.032;9.410;2023-07-20T11:34:25;4.35;;;1.90;;
71572;SDS011;59408;51.032;9.410;2023-07-20T11:36:52;5.43;;;1.92;;
71572;SDS011;59408;51.032;9.410;2023-07-20T11:39:22;5.22;;;2.22;;
71572;SDS011;59408;51.032;9.410;2023-07-20T11:41:51;4.63;;;2.20;;
71572;SDS011;59408;51.032;9.410;2023-07-20T11:44:18;6.05;;;1.75;;
71572;SDS011;59408;51.032;9.410;2023-07-20T11:46:47;4.72;;;1.92;;
71572;SDS011;59408;51.032;9.410;2023-07-20T11:49:13;6.25;;;2.00;;
71572;SDS011;59408;51.032;9.410;2023-07-20T11:51:40;5.15;;;1.65;;
71572;SDS011;59408;51.032;9.410;2023-07-20T11:54:07;4.80;;;1.63;;
71572;SDS011;59408;51.032;9.410;2023-07-20T11:56:35;4.20;;;1.75;;
71572;SDS011;59408;51.032;9.410;2023-07-20T11:59:03;3.70;;;1.40;;
71572;SDS011;59408;51.032;9.410;2023-07-20T12:01:29;3.42;;;1.27;;
71572;SDS011;59408;51.032;9.410;2023-07-20T12:03:56;4.78;;;1.60;;
71572;SDS011;59408;51.032;9.410;2023-07-20T12:06:24;3.50;;;1.47;;
71572;SDS011;59408;51.032;9.410;2023-07-20T12:08:55;4.05;;;1.10;;
71572;SDS011;59408;51.032;9.410;2023-07-20T12:11:32;3.30;;;1.30;;
71572;SDS011;59408;51.032;9.410;2023-07-20T12:14:00;5.45;;;1.30;;
71572;SDS011;59408;51.032;9.410;2023-07-20T12:16:43;2.80;;;0.85;;
71572;SDS011;59408;51.032;9.410;2023-07-20T12:19:11;2.83;;;1.00;;
71572;SDS011;59408;51.032;9.410;2023-07-20T12:21:39;3.42;;;0.90;;
71572;SDS011;59408;51.032;9.410;2023-07-20T12:24:07;2.63;;;0.90;;
71572;SDS011;59408;51.032;9.410;2023-07-20T12:26:35;3.17;;;1.10;;
71572;SDS011;59408;51.032;9.410;2023-07-20T12:29:01;3.63;;;1.08;;
71572;SDS011;59408;51.032;9.410;2023-07-20T12:31:28;3.90;;;1.07;;
71572;SDS011;59408;51.032;9.410;2023-07-20T12:33:57;3.33;;;1.02;;
71572;SDS011;59408;51.032;9.410;2023-07-20T12:36:24;4.75;;;1.10;;
71572;SDS011;59408;51.032;9.410;2023-07-20T12:38:51;3.03;;;1.20;;
71572;SDS011;59408;51.032;9.410;2023-07-20T12:41:18;4.20;;;1.00;;
71572;SDS011;59408;51.032;9.410;2023-07-20T12:43:44;4.00;;;1.00;;
71572;SDS011;59408;51.032;9.410;2023-07-20T12:46:11;3.80;;;0.98;;
71572;SDS011;59408;51.032;9.410;2023-07-20T12:48:39;3.95;;;1.25;;
71572;SDS011;59408;51.032;9.410;2023-07-20T12:51:09;3.60;;;1.20;;
71572;SDS011;59408;51.032;9.410;2023-07-20T12:53:36;3.70;;;1.00;;
71572;SDS011;59408;51.032;9.410;2023-07-20T12:56:02;2.80;;;0.90;;
71572;SDS011;59408;51.032;9.410;2023-07-20T12:58:49;3.65;;;0.93;;
71572;SDS011;59408;51.032;9.410;2023-07-20T13:01:16;3.15;;;1.02;;
71572;SDS011;59408;51.032;9.410;2023-07-20T13:03:43;3.25;;;0.90;;
71572;SDS011;59408;51.032;9.410;2023-07-20T13:06:14;2.83;;;0.80;;
71572;SDS011;59408;51.032;9.410;2023-07-20T13:08:43;2.50;;;0.80;;
71572;SDS011;59408;51.032;9.410;2023-07-20T13:11:10;2.55;;;0.93;;
71572;SDS011;59408;51.032;9.410;2023-07-20T13:13:37;3.88;;;1.30;;
71572;SDS011;59408;51.032;9.410;2023-07-20T13:16:03;2.65;;;0.90;;
71572;SDS011;59408;51.032;9.410;2023-07-20T13:18:30;3.38;;;0.90;;
71572;SDS011;59408;51.032;9.410;2023-07-20T13:20:57;3.23;;;1.20;;
71572;SDS011;59408;51.032;9.410;2023-07-20T13:23:25;3.13;;;0.90;;
71572;SDS011;59408;51.032;9.410;2023-07-20T13:25:51;5.43;;;1.25;;
71572;SDS011;59408;51.032;9.410;2023-07-20T13:28:18;3.72;;;0.90;;
71572;SDS011;59408;51.032;9.410;2023-07-20T13:30:44;3.60;;;1.00;;
71572;SDS011;59408;51.032;9.410;2023-07-20T13:33:11;3.87;;;1.20;;
71572;SDS011;59408;51.032;9.410;2023-07-20T13:35:43;3.17;;;0.90;;
71572;SDS011;59408;51.032;9.410;2023-07-20T13:38:12;3.47;;;0.90;;
71572;SDS011;59408;51.032;9.410;2023-07-20T13:40:40;2.50;;;0.90;;
71572;SDS011;59408;51.032;9.410;2023-07-20T13:43:07;3.17;;;1.00;;
71572;SDS011;59408;51.032;9.410;2023-07-20T13:45:33;3.83;;;0.80;;
71572;SDS011;59408;51.032;9.410;2023-07-20T13:48:00;2.72;;;0.98;;
71572;SDS011;59408;51.032;9.410;2023-07-20T13:50:28;4.55;;;0.98;;
71572;SDS011;59408;51.032;9.410;2023-07-20T13:53:07;3.85;;;1.00;;
71572;SDS011;59408;51.032;9.410;2023-07-20T13:55:37;2.95;;;0.85;;
71572;SDS011;59408;51.032;9.410;2023-07-20T13:58:08;3.87;;;1.10;;
71572;SDS011;59408;51.032;9.410;2023-07-20T14:00:37;3.42;;;1.10;;
71572;SDS011;59408;51.032;9.410;2023-07-20T14:03:04;4.10;;;1.20;;
71572;SDS011;59408;51.032;9.410;2023-07-20T14:05:33;3.72;;;1.20;;
71572;SDS011;59408;51.032;9.410;2023-07-20T14:08:03;3.40;;;1.15;;
71572;SDS011;59408;51.032;9.410;2023-07-20T14:10:29;3.17;;;1.20;;
71572;SDS011;59408;51.032;9.410;2023-07-20T14:12:56;2.83;;;1.05;;
71572;SDS011;59408;51.032;9.410;2023-07-20T14:15:24;3.47;;;1.23;;
71572;SDS011;59408;51.032;9.410;2023-07-20T14:17:50;3.33;;;1.00;;
71572;SDS011;59408;51.032;9.410;2023-07-20T14:20:19;3.60;;;1.20;;
71572;SDS011;59408;51.032;9.410;2023-07-20T14:22:48;3.77;;;1.10;;
71572;SDS011;59408;51.032;9.410;2023-07-20T14:25:17;2.60;;;1.10;;
71572;SDS011;59408;51.032;9.410;2023-07-20T14:27:45;4.72;;;1.20;;
71572;SDS011;59408;51.032;9.410;2023-07-20T14:30:12;2.95;;;1.10;;
71572;SDS011;59408;51.032;9.410;2023-07-20T14:32:40;4.35;;;1.35;;
71572;SDS011;59408;51.032;9.410;2023-07-20T14:35:07;4.80;;;1.00;;
71572;SDS011;59408;51.032;9.410;2023-07-20T14:37:36;2.92;;;1.00;;
71572;SDS011;59408;51.032;9.410;2023-07-20T14:40:03;3.08;;;1.10;;
71572;SDS011;59408;51.032;9.410;2023-07-20T14:42:30;3.17;;;1.00;;
71572;SDS011;59408;51.032;9.410;2023-07-20T14:44:57;3.90;;;1.20;;
71572;SDS011;59408;51.032;9.410;2023-07-20T14:47:23;3.17;;;1.00;;
71572;SDS011;59408;51.032;9.410;2023-07-20T14:49:51;5.28;;;1.92;;
71572;SDS011;59408;51.032;9.410;2023-07-20T14:52:18;3.58;;;1.33;;
71572;SDS011;59408;51.032;9.410;2023-07-20T14:54:44;4.00;;;1.10;;